Time;durP1;ratioP1;P1;durP2;ratioP2;P2;SDS_P1;SDS_P2;PMS_P1;PMS_P2;Temp;Humidity;BMP_temperature;BMP_pressure;BME280_temperature;BME280_humidity;BME280_pressure;Samples;Min_cycle;Max_cycle;Signal;HPM_P1;HPM_P2
2022/06/28 00:00:30;;;;;;;1.43;1.03;;;18.20;99.90;;;;;;5020670;28;20228;-77
2022/06/28 00:02:56;;;;;;;2.10;1.13;;;18.10;99.90;;;;;;5054335;28;20699;-77
2022/06/28 00:05:22;;;;;;;1.23;1.13;;;18.00;99.90;;;;;;5036803;28;20264;-77
2022/06/28 00:07:47;;;;;;;1.30;1.20;;;18.00;99.90;;;;;;5036925;28;20189;-77
2022/06/28 00:10:15;;;;;;;2.20;1.20;;;17.90;99.90;;;;;;5036608;28;20227;-78
2022/06/28 00:12:41;;;;;;;1.40;1.17;;;17.90;99.90;;;;;;5036587;28;20195;-77
2022/06/28 00:18:29;;;;;;;1.63;1.13;;;17.80;99.90;;;;;;5054356;28;20204;-77
2022/06/28 00:20:54;;;;;;;2.43;1.20;;;17.60;99.90;;;;;;5003918;28;20637;-77
2022/06/28 00:23:20;;;;;;;4.30;1.50;;;17.60;99.90;;;;;;5003603;28;20552;-77
2022/06/28 00:25:46;;;;;;;1.23;1.00;;;17.40;99.90;;;;;;5020017;28;20182;-77
2022/06/28 00:28:11;;;;;;;3.43;1.53;;;17.20;99.90;;;;;;5019638;28;20339;-77
2022/06/28 00:30:37;;;;;;;2.67;1.20;;;17.00;99.90;;;;;;5003741;28;20169;-77
2022/06/28 00:33:02;;;;;;;2.50;1.10;;;16.90;99.90;;;;;;5019535;28;20178;-77
2022/06/28 00:35:28;;;;;;;1.60;1.10;;;16.80;99.90;;;;;;5019875;28;20178;-77
2022/06/28 00:37:54;;;;;;;1.47;1.27;;;16.70;99.90;;;;;;5019546;28;20201;-77
2022/06/28 00:40:20;;;;;;;1.90;1.30;;;16.50;99.90;;;;;;5002861;28;20181;-77
2022/06/28 00:42:45;;;;;;;3.60;1.20;;;16.50;99.90;;;;;;5019292;28;20632;-77
2022/06/28 00:45:12;;;;;;;1.40;1.30;;;16.50;99.90;;;;;;5019323;28;20224;-77
2022/06/28 00:47:39;;;;;;;2.03;1.47;;;16.50;99.90;;;;;;5035803;28;20212;-77
2022/06/28 00:50:05;;;;;;;1.30;1.20;;;16.50;99.90;;;;;;5019400;28;20628;-77
2022/06/28 00:52:30;;;;;;;1.13;1.03;;;16.30;99.90;;;;;;5019174;28;20173;-77
2022/06/28 00:54:56;;;;;;;1.73;1.27;;;16.30;99.90;;;;;;5002952;28;20662;-77
2022/06/28 00:57:22;;;;;;;1.00;1.00;;;16.40;99.90;;;;;;5035928;28;20217;-77
2022/06/28 00:59:48;;;;;;;1.20;1.10;;;16.50;99.90;;;;;;5003108;28;20209;-77
2022/06/28 01:02:14;;;;;;;1.83;1.10;;;16.60;99.90;;;;;;5003084;28;20212;-77
2022/06/28 01:04:40;;;;;;;1.63;1.20;;;16.60;99.90;;;;;;5019284;28;20232;-77
2022/06/28 01:07:09;;;;;;;1.60;1.20;;;16.70;99.90;;;;;;5019018;28;20647;-77
2022/06/28 01:09:34;;;;;;;2.27;1.10;;;16.70;99.90;;;;;;5035369;28;20170;-77
2022/06/28 01:12:00;;;;;;;1.57;1.10;;;16.50;99.90;;;;;;5002716;28;20177;-77
2022/06/28 01:14:26;;;;;;;2.40;1.20;;;16.40;99.90;;;;;;5018518;28;20234;-78
2022/06/28 01:16:52;;;;;;;2.23;1.33;;;16.20;99.90;;;;;;5019038;28;20174;-77
2022/06/28 01:19:17;;;;;;;2.97;1.30;;;16.00;99.90;;;;;;5033348;28;20203;-77
2022/06/28 01:21:46;;;;;;;1.10;1.00;;;15.90;99.90;;;;;;5002545;28;20188;-77
2022/06/28 01:24:12;;;;;;;2.73;1.30;;;15.90;99.90;;;;;;5034971;28;20198;-77
2022/06/28 01:26:38;;;;;;;1.87;1.10;;;15.80;99.90;;;;;;5018795;28;20184;-77
2022/06/28 01:29:04;;;;;;;1.93;1.20;;;15.60;99.90;;;;;;5018610;28;20223;-77
2022/06/28 01:31:30;;;;;;;4.30;1.30;;;15.50;99.90;;;;;;5019049;28;20178;-77
2022/06/28 01:33:56;;;;;;;2.03;1.20;;;15.50;99.90;;;;;;5035030;28;20181;-77
2022/06/28 01:36:22;;;;;;;1.90;1.30;;;15.50;99.90;;;;;;5035082;28;20188;-77
2022/06/28 01:38:48;;;;;;;1.40;1.17;;;15.60;99.90;;;;;;5002121;28;20197;-77
2022/06/28 01:41:32;;;;;;;1.43;1.33;;;15.60;99.90;;;;;;5035043;28;20177;-77
2022/06/28 01:44:00;;;;;;;2.03;1.20;;;15.60;99.90;;;;;;5037462;28;20186;-77
2022/06/28 01:46:26;;;;;;;1.20;1.10;;;15.50;99.90;;;;;;5002344;28;20238;-77
2022/06/28 01:48:52;;;;;;;3.50;1.20;;;15.40;99.90;;;;;;5002136;28;20308;-77
2022/06/28 01:51:18;;;;;;;1.20;1.10;;;15.30;99.90;;;;;;5034615;28;20595;-77
2022/06/28 01:53:43;;;;;;;1.77;1.10;;;15.20;99.90;;;;;;5018144;28;20193;-77
2022/06/28 01:56:09;;;;;;;2.40;1.00;;;15.30;99.90;;;;;;5034628;28;20648;-77
2022/06/28 01:58:35;;;;;;;1.23;1.13;;;15.20;99.90;;;;;;5018435;28;20197;-76
2022/06/28 02:01:00;;;;;;;2.13;1.00;;;15.20;99.90;;;;;;5002079;28;20211;-77
2022/06/28 02:03:26;;;;;;;2.40;1.30;;;15.10;99.90;;;;;;5034744;28;20296;-77
2022/06/28 02:05:51;;;;;;;1.83;1.20;;;14.90;99.90;;;;;;5018403;28;20188;-77
2022/06/28 02:08:17;;;;;;;1.80;1.30;;;14.70;99.90;;;;;;5034821;28;20189;-77
2022/06/28 02:10:43;;;;;;;1.53;1.13;;;14.60;99.90;;;;;;5018401;28;20200;-77
2022/06/28 02:13:08;;;;;;;1.13;1.03;;;14.50;99.90;;;;;;5018313;28;20182;-77
2022/06/28 02:16:12;;;;;;;2.93;1.43;;;14.50;99.90;;;;;;5034349;28;20177;-77
2022/06/28 02:18:38;;;;;;;1.10;1.00;;;14.40;99.90;;;;;;5034524;28;20200;-77
2022/06/28 02:21:04;;;;;;;1.30;1.00;;;14.40;99.90;;;;;;5001731;28;20178;-77
2022/06/28 02:23:30;;;;;;;2.00;1.10;;;14.40;99.90;;;;;;5001963;28;20204;-77
2022/06/28 02:25:56;;;;;;;1.30;1.20;;;14.30;99.90;;;;;;5001699;28;20166;-77
2022/06/28 02:28:22;;;;;;;1.70;1.30;;;14.40;99.90;;;;;;5001787;28;20189;-77
2022/06/28 02:30:47;;;;;;;1.23;1.10;;;14.40;99.90;;;;;;5018239;28;20170;-77
2022/06/28 02:33:13;;;;;;;1.43;1.30;;;14.30;99.90;;;;;;5001791;28;20186;-77
2022/06/28 02:41:06;;;;;;;1.80;1.07;;;14.00;99.90;;;;;;5023345;28;20173;-77
2022/06/28 02:43:32;;;;;;;1.40;1.30;;;14.00;99.90;;;;;;5051915;28;20190;-77
2022/06/28 02:45:58;;;;;;;2.17;1.20;;;14.20;99.90;;;;;;5001879;28;20704;-77
2022/06/28 02:48:23;;;;;;;1.40;1.30;;;14.10;99.90;;;;;;5017870;28;20680;-77
2022/06/28 02:50:49;;;;;;;1.67;1.20;;;14.10;99.90;;;;;;5001440;28;20178;-77
2022/06/28 02:53:15;;;;;;;1.17;1.07;;;14.10;99.90;;;;;;5017942;28;20185;-77
2022/06/28 02:55:40;;;;;;;1.97;1.30;;;14.10;99.90;;;;;;5018000;28;20186;-77
2022/06/28 02:58:06;;;;;;;1.70;1.27;;;14.10;99.90;;;;;;5017676;28;20292;-76
2022/06/28 03:00:31;;;;;;;2.57;1.30;;;14.00;99.90;;;;;;5034490;28;20177;-76
2022/06/28 03:02:57;;;;;;;2.60;1.10;;;14.10;99.90;;;;;;5017864;28;20265;-77
2022/06/28 03:05:23;;;;;;;2.57;1.10;;;14.20;99.90;;;;;;5021581;28;20189;-77
2022/06/28 03:07:49;;;;;;;3.47;1.27;;;14.20;99.90;;;;;;5021433;28;20197;-76
2022/06/28 03:10:18;;;;;;;1.53;1.10;;;14.10;99.90;;;;;;5037996;28;20632;-77
2022/06/28 03:12:43;;;;;;;1.87;1.20;;;14.00;99.90;;;;;;5037681;28;20192;-77
2022/06/28 03:15:16;;;;;;;1.30;1.20;;;14.00;99.90;;;;;;5020995;28;20542;-77
2022/06/28 03:17:42;;;;;;;1.60;1.50;;;14.00;99.90;;;;;;5005012;28;20201;-76
2022/06/28 03:20:08;;;;;;;1.50;1.40;;;14.10;99.90;;;;;;5019158;28;20182;-77
2022/06/28 03:22:34;;;;;;;1.20;1.10;;;14.00;99.90;;;;;;5020636;28;20277;-77
2022/06/28 03:24:59;;;;;;;1.83;1.10;;;13.90;99.90;;;;;;5020898;28;20292;-77
2022/06/28 03:27:25;;;;;;;1.30;1.20;;;13.70;99.90;;;;;;5004896;28;20198;-77
2022/06/28 03:29:51;;;;;;;1.40;1.30;;;13.80;99.90;;;;;;5037681;28;20178;-77
2022/06/28 03:32:17;;;;;;;1.30;1.20;;;13.70;99.90;;;;;;5020865;28;20656;-77
2022/06/28 03:34:43;;;;;;;1.40;1.30;;;13.70;99.90;;;;;;5004966;28;20190;-77
2022/06/28 03:37:08;;;;;;;1.37;1.23;;;13.80;99.90;;;;;;5021031;28;20174;-77
2022/06/28 03:39:34;;;;;;;1.43;1.23;;;13.90;99.90;;;;;;5020693;28;20237;-77
2022/06/28 03:42:00;;;;;;;1.30;1.20;;;13.90;99.90;;;;;;5020657;28;20201;-77
2022/06/28 03:44:25;;;;;;;1.70;1.40;;;13.90;99.90;;;;;;5004097;28;20616;-77
2022/06/28 03:46:51;;;;;;;1.40;1.30;;;14.00;99.90;;;;;;5004566;28;20173;-77
2022/06/28 03:49:16;;;;;;;2.90;1.47;;;13.80;99.90;;;;;;5007890;23;20237;-78
2022/06/28 03:51:42;;;;;;;3.53;1.27;;;13.90;99.90;;;;;;5016647;28;20237;-78
2022/06/28 03:54:08;;;;;;;1.70;1.60;;;13.80;99.90;;;;;;5016535;28;20182;-78
2022/06/28 03:56:33;;;;;;;1.40;1.30;;;14.00;99.90;;;;;;5016840;28;20269;-78
2022/06/28 03:58:59;;;;;;;1.90;1.20;;;14.00;99.90;;;;;;5016341;28;20691;-78
2022/06/28 04:01:24;;;;;;;1.27;1.17;;;13.80;99.90;;;;;;5033053;28;20182;-78
2022/06/28 04:03:50;;;;;;;1.70;1.20;;;13.70;99.90;;;;;;5016316;28;20202;-78
2022/06/28 04:06:15;;;;;;;1.30;1.20;;;13.70;99.90;;;;;;5032828;28;20224;-77
2022/06/28 04:08:41;;;;;;;1.70;1.23;;;13.50;99.90;;;;;;5016286;28;20222;-77
2022/06/28 04:11:16;;;;;;;1.50;1.37;;;13.50;99.90;;;;;;5016397;28;20179;-78
2022/06/28 04:13:44;;;;;;;1.97;1.27;;;13.40;99.90;;;;;;5017609;28;20178;-77
2022/06/28 04:16:10;;;;;;;1.10;1.00;;;13.50;99.90;;;;;;5031669;28;20597;-78
2022/06/28 04:18:36;;;;;;;1.97;1.20;;;13.70;99.90;;;;;;5032548;28;20194;-78
2022/06/28 04:21:02;;;;;;;1.47;1.37;;;13.80;99.90;;;;;;5016142;28;20185;-78
2022/06/28 04:23:28;;;;;;;2.40;1.20;;;13.80;99.90;;;;;;5032458;28;20244;-77
2022/06/28 04:25:54;;;;;;;1.63;1.40;;;13.80;99.90;;;;;;5032656;28;20206;-78
2022/06/28 04:28:20;;;;;;;1.27;1.17;;;13.90;99.90;;;;;;5016014;28;20289;-78
2022/06/28 04:30:45;;;;;;;1.20;1.10;;;13.80;99.90;;;;;;5032448;28;20238;-78
2022/06/28 04:33:11;;;;;;;1.30;1.20;;;13.70;99.90;;;;;;5016145;28;20273;-77
2022/06/28 04:35:36;;;;;;;1.20;1.10;;;13.80;99.90;;;;;;5032578;28;20170;-78
2022/06/28 04:38:02;;;;;;;1.53;1.43;;;13.80;99.90;;;;;;5032520;28;20198;-78
2022/06/28 04:40:28;;;;;;;2.73;1.10;;;13.70;99.90;;;;;;5015951;28;20182;-78
2022/06/28 04:42:54;;;;;;;2.20;1.30;;;13.70;99.90;;;;;;5015511;28;20612;-78
2022/06/28 04:45:20;;;;;;;1.43;1.33;;;13.70;99.90;;;;;;5015703;28;20178;-78
2022/06/28 04:47:45;;;;;;;1.67;1.20;;;13.70;99.90;;;;;;5031494;28;20206;-78
2022/06/28 04:50:11;;;;;;;1.53;1.40;;;13.70;99.90;;;;;;5015593;28;20188;-77
2022/06/28 04:52:36;;;;;;;1.73;1.30;;;13.60;99.90;;;;;;5015407;28;20182;-77
2022/06/28 04:55:03;;;;;;;2.27;1.50;;;13.70;99.90;;;;;;5015483;28;20197;-78
2022/06/28 04:57:29;;;;;;;1.63;1.53;;;13.80;99.90;;;;;;5015909;28;20187;-81
2022/06/28 04:59:55;;;;;;;1.50;1.40;;;13.80;99.90;;;;;;5033291;28;20185;-81
2022/06/28 05:02:20;;;;;;;2.37;1.33;;;13.70;99.90;;;;;;5034258;28;20178;-80
2022/06/28 05:04:46;;;;;;;1.83;1.30;;;13.80;99.90;;;;;;5032517;28;20213;-79
2022/06/28 05:07:12;;;;;;;3.87;1.53;;;13.90;99.90;;;;;;5032187;28;20205;-79
2022/06/28 05:09:37;;;;;;;1.30;1.20;;;14.00;99.90;;;;;;5016128;28;20199;-79
2022/06/28 05:12:03;;;;;;;2.00;1.53;;;14.00;99.90;;;;;;5015934;28;20178;-79
2022/06/28 05:14:29;;;;;;;2.13;1.63;;;14.10;99.90;;;;;;5032166;28;20285;-79
2022/06/28 05:16:54;;;;;;;2.23;1.60;;;14.10;99.90;;;;;;5015834;28;20190;-79
2022/06/28 05:19:20;;;;;;;2.00;1.50;;;14.20;99.90;;;;;;5015502;28;20198;-78
2022/06/28 05:21:46;;;;;;;3.57;1.93;;;14.20;99.90;;;;;;5011518;28;20187;-77
2022/06/28 05:24:11;;;;;;;3.00;1.70;;;14.30;99.90;;;;;;4979798;28;20195;-77
2022/06/28 05:26:37;;;;;;;2.80;2.20;;;14.30;99.90;;;;;;5011182;28;20183;-78
2022/06/28 05:29:02;;;;;;;2.30;2.10;;;14.40;99.90;;;;;;5012638;28;20207;-79
2022/06/28 05:31:28;;;;;;;2.57;2.37;;;14.40;99.90;;;;;;5012265;28;20237;-78
2022/06/28 05:33:55;;;;;;;3.47;2.40;;;14.40;99.90;;;;;;5011965;28;20178;-78
2022/06/28 05:36:21;;;;;;;3.03;2.40;;;14.60;99.90;;;;;;5028492;28;20174;-78
2022/06/28 05:38:47;;;;;;;2.60;2.40;;;14.70;99.90;;;;;;4979362;28;20329;-78
2022/06/28 05:41:13;;;;;;;2.87;2.50;;;14.70;99.90;;;;;;5013312;28;20250;-78
2022/06/28 05:43:39;;;;;;;3.10;2.80;;;14.70;99.90;;;;;;5028331;28;20207;-78
2022/06/28 05:46:04;;;;;;;3.43;2.73;;;14.80;99.90;;;;;;4995614;28;20179;-78
2022/06/28 05:48:30;;;;;;;2.97;2.50;;;14.90;99.90;;;;;;5011874;28;20611;-78
2022/06/28 05:50:55;;;;;;;2.57;2.37;;;14.90;99.90;;;;;;4979682;28;20179;-78
2022/06/28 05:53:21;;;;;;;3.10;2.80;;;15.00;99.90;;;;;;4979343;28;20186;-78
2022/06/28 05:55:47;;;;;;;3.27;2.40;;;15.10;99.90;;;;;;4979666;28;20198;-78
2022/06/28 05:58:12;;;;;;;3.83;2.87;;;15.20;99.90;;;;;;5011821;28;20252;-79
2022/06/28 06:00:39;;;;;;;3.43;2.80;;;15.20;99.90;;;;;;5011689;28;20175;-77
2022/06/28 06:03:05;;;;;;;4.10;2.70;;;15.20;99.90;;;;;;5011883;28;20179;-78
2022/06/28 06:05:30;;;;;;;3.13;2.30;;;15.30;99.90;;;;;;5011633;28;20262;-78
2022/06/28 06:07:56;;;;;;;2.60;1.90;;;15.40;99.90;;;;;;4979086;28;20287;-78
2022/06/28 06:10:22;;;;;;;2.10;1.73;;;15.60;99.90;;;;;;5028098;28;20281;-78
2022/06/28 06:12:48;;;;;;;2.17;1.90;;;15.80;99.90;;;;;;5011649;28;20671;-78
2022/06/28 06:15:14;;;;;;;2.20;1.80;;;15.90;99.90;;;;;;5011756;28;20672;-77
2022/06/28 06:17:39;;;;;;;2.20;2.00;;;16.00;99.90;;;;;;5011532;28;20252;-78
2022/06/28 06:20:06;;;;;;;2.13;1.70;;;16.10;99.90;;;;;;4978985;28;20642;-78
2022/06/28 06:22:32;;;;;;;2.27;1.70;;;16.00;99.90;;;;;;5027967;28;20178;-78
2022/06/28 06:24:57;;;;;;;2.87;2.57;;;15.90;99.90;;;;;;5011701;28;20198;-78
2022/06/28 06:27:23;;;;;;;3.80;2.10;;;15.90;99.90;;;;;;4978838;28;20278;-77
2022/06/28 06:29:49;;;;;;;2.30;1.70;;;15.90;99.90;;;;;;5011419;28;20257;-78
2022/06/28 06:32:14;;;;;;;3.70;1.93;;;16.10;99.90;;;;;;4978732;28;20217;-78
2022/06/28 06:34:40;;;;;;;2.87;1.83;;;16.30;99.90;;;;;;5011667;28;20634;-78
2022/06/28 06:37:05;;;;;;;1.70;1.60;;;16.50;99.90;;;;;;4978805;28;20189;-78
2022/06/28 06:39:31;;;;;;;2.10;1.90;;;16.60;99.90;;;;;;5014182;28;20245;-78
2022/06/28 06:41:57;;;;;;;2.00;1.80;;;16.70;99.90;;;;;;5016191;28;20646;-78
2022/06/28 06:44:22;;;;;;;1.60;1.50;;;16.60;99.90;;;;;;5015017;28;20205;-78
2022/06/28 06:46:48;;;;;;;1.80;1.70;;;16.80;99.90;;;;;;4982827;28;20171;-78
2022/06/28 06:49:14;;;;;;;2.00;1.80;;;17.00;99.90;;;;;;5015021;28;20580;-78
2022/06/28 06:51:44;;;;;;;1.90;1.47;;;17.10;99.90;;;;;;4998841;28;20174;-78
2022/06/28 06:54:11;;;;;;;1.70;1.40;;;17.20;99.90;;;;;;4999048;28;20171;-77
2022/06/28 06:56:38;;;;;;;1.30;1.20;;;17.20;99.90;;;;;;4998725;28;20187;-78
2022/06/28 06:59:04;;;;;;;1.93;1.30;;;17.10;99.90;;;;;;5015984;28;20199;-78
2022/06/28 07:01:33;;;;;;;2.17;1.90;;;17.00;99.90;;;;;;5032709;28;20183;-78
2022/06/28 07:03:58;;;;;;;1.70;1.60;;;17.10;99.90;;;;;;5026208;28;20221;-77
2022/06/28 07:06:24;;;;;;;3.60;1.80;;;17.10;99.90;;;;;;5018368;28;20218;-77
2022/06/28 07:08:50;;;;;;;1.40;1.07;;;17.20;99.90;;;;;;5017970;28;20194;-78
2022/06/28 07:11:15;;;;;;;1.27;1.17;;;17.30;99.90;;;;;;5034409;28;20170;-78
2022/06/28 07:17:03;;;;;;;1.77;1.10;;;17.60;99.90;;;;;;5035530;28;20201;-78
2022/06/28 07:19:29;;;;;;;1.20;1.00;;;17.70;99.90;;;;;;5001427;28;20201;-77
2022/06/28 07:21:54;;;;;;;1.03;0.90;;;17.80;99.90;;;;;;5017568;28;20190;-78
2022/06/28 07:24:20;;;;;;;1.90;1.10;;;17.90;99.90;;;;;;5017795;28;20200;-78
2022/06/28 07:26:45;;;;;;;2.07;1.10;;;18.00;99.90;;;;;;5017942;28;20227;-78
2022/06/28 07:29:13;;;;;;;1.50;0.97;;;18.10;99.90;;;;;;5017902;28;20194;-78
2022/06/28 07:31:40;;;;;;;1.30;1.10;;;18.20;99.90;;;;;;5034035;28;20174;-78
2022/06/28 07:34:05;;;;;;;1.93;1.30;;;18.30;99.90;;;;;;5017329;28;20193;-78
2022/06/28 07:36:31;;;;;;;1.70;1.20;;;18.30;99.90;;;;;;5035300;28;20170;-77
2022/06/28 07:38:56;;;;;;;1.10;1.00;;;18.40;99.90;;;;;;5017632;28;20213;-77
2022/06/28 07:41:23;;;;;;;0.90;0.90;;;18.50;99.90;;;;;;5017371;28;20178;-77
2022/06/28 07:43:51;;;;;;;1.70;1.10;;;18.50;99.90;;;;;;5033870;28;20221;-78
2022/06/28 07:46:20;;;;;;;1.73;1.00;;;18.60;99.90;;;;;;5033757;28;20175;-78
2022/06/28 07:48:46;;;;;;;1.20;0.83;;;18.70;99.90;;;;;;5034809;28;20234;-78
2022/06/28 07:53:57;;;;;;;1.20;1.10;;;18.70;99.90;;;;;;5035012;28;20212;-78
2022/06/28 07:56:22;;;;;;;1.23;1.00;;;18.90;99.90;;;;;;5033455;28;20261;-78
2022/06/28 07:58:48;;;;;;;1.13;1.00;;;19.00;99.90;;;;;;5033462;28;20265;-78
2022/06/28 08:01:13;;;;;;;1.27;1.10;;;19.20;99.90;;;;;;5033638;28;20181;-78
2022/06/28 08:03:39;;;;;;;2.37;1.20;;;19.40;99.90;;;;;;5017145;28;20206;-78
2022/06/28 08:06:05;;;;;;;1.53;1.20;;;19.50;99.90;;;;;;5017184;28;20539;-78
2022/06/28 08:08:30;;;;;;;1.10;1.00;;;19.60;99.90;;;;;;5016668;28;20198;-77
2022/06/28 08:10:56;;;;;;;1.43;1.20;;;19.80;99.90;;;;;;5032853;28;20181;-78
2022/06/28 08:13:22;;;;;;;1.60;1.30;;;19.90;99.90;;;;;;5015866;28;20604;-78
2022/06/28 08:15:48;;;;;;;2.00;1.20;;;20.00;99.90;;;;;;5033937;28;20747;-78
2022/06/28 08:18:14;;;;;;;1.20;1.10;;;19.90;99.90;;;;;;5015973;28;20297;-78
2022/06/28 08:20:40;;;;;;;1.93;1.00;;;20.00;99.90;;;;;;5016394;28;20209;-78
2022/06/28 08:23:06;;;;;;;1.20;1.10;;;20.00;99.90;;;;;;5016187;28;20186;-78
2022/06/28 08:25:32;;;;;;;1.10;1.00;;;20.10;99.90;;;;;;5016058;28;20185;-78
2022/06/28 08:27:58;;;;;;;1.77;1.10;;;20.10;99.90;;;;;;5016525;28;20199;-78
2022/06/28 08:30:25;;;;;;;2.00;1.10;;;20.10;99.90;;;;;;5016081;28;20674;-78
2022/06/28 08:32:51;;;;;;;1.47;1.20;;;20.10;99.90;;;;;;5032180;28;20177;-78
2022/06/28 08:35:17;;;;;;;2.07;1.30;;;20.10;99.90;;;;;;5032600;28;20179;-78
2022/06/28 08:37:43;;;;;;;2.33;1.20;;;20.20;99.90;;;;;;5032255;28;20268;-78
2022/06/28 08:40:09;;;;;;;1.83;1.07;;;20.20;99.90;;;;;;5015686;28;20583;-78
2022/06/28 08:42:40;;;;;;;1.00;0.90;;;20.40;99.90;;;;;;5033213;28;20175;-78
2022/06/28 08:45:06;;;;;;;1.60;0.90;;;20.70;99.90;;;;;;5032266;28;20281;-78
2022/06/28 08:47:34;;;;;;;1.65;1.40;;;20.70;99.90;;;;;;5015403;28;20178;-78
2022/06/28 08:50:13;;;;;;;2.20;1.02;;;20.80;99.90;;;;;;5033311;28;20193;-78
2022/06/28 08:52:41;;;;;;;1.98;1.00;;;20.90;99.90;;;;;;5032008;28;20181;-78
2022/06/28 08:55:08;;;;;;;1.95;1.00;;;21.10;99.90;;;;;;5032107;28;20209;-78
2022/06/28 08:57:35;;;;;;;2.85;1.10;;;21.30;99.90;;;;;;5032013;28;20174;-78
2022/06/28 09:00:06;;;;;;;1.42;0.98;;;21.50;99.90;;;;;;5031844;28;20170;-78
2022/06/28 09:02:32;;;;;;;1.35;1.10;;;21.60;99.90;;;;;;5030442;28;20284;-78
2022/06/28 09:05:00;;;;;;;1.10;0.98;;;21.50;99.90;;;;;;5032062;28;20775;-78
2022/06/28 09:07:26;;;;;;;1.10;0.90;;;21.60;99.90;;;;;;5032109;28;20186;-78
2022/06/28 09:09:52;;;;;;;2.15;0.80;;;21.80;99.90;;;;;;5032155;28;20171;-78
2022/06/28 09:12:18;;;;;;;1.73;0.90;;;22.00;99.90;;;;;;5032039;28;20226;-78
2022/06/28 09:15:35;;;;;;;1.58;0.93;;;22.10;99.90;;;;;;5015800;28;20212;-77
2022/06/28 09:18:00;;;;;;;2.03;1.02;;;22.30;99.90;;;;;;5033172;28;20194;-77
2022/06/28 09:20:37;;;;;;;1.60;0.88;;;22.20;98.00;;;;;;5032157;28;20185;-77
2022/06/28 09:23:03;;;;;;;0.95;0.90;;;21.90;96.90;;;;;;5032000;28;20163;-77
2022/06/28 09:25:30;;;;;;;1.55;0.82;;;21.70;97.40;;;;;;5015470;28;20221;-78
2022/06/28 09:27:58;;;;;;;3.22;1.13;;;21.70;97.30;;;;;;5031759;28;20194;-77
2022/06/28 09:30:26;;;;;;;1.52;0.90;;;21.90;98.30;;;;;;5031845;28;20265;-78
2022/06/28 09:32:52;;;;;;;0.90;0.90;;;22.10;97.30;;;;;;5031710;28;20178;-77
2022/06/28 09:35:18;;;;;;;1.40;1.00;;;22.40;97.90;;;;;;5031955;28;20229;-78
2022/06/28 09:37:49;;;;;;;1.75;0.88;;;22.50;95.00;;;;;;5015585;28;20194;-78
2022/06/28 09:40:24;;;;;;;2.80;1.00;;;22.60;94.70;;;;;;5032907;28;20637;-77
2022/06/28 09:43:12;;;;;;;1.25;1.08;;;22.80;96.10;;;;;;5032620;28;20176;-78
2022/06/28 09:45:40;;;;;;;1.63;1.00;;;23.00;95.80;;;;;;5031600;28;20182;-77
2022/06/28 09:48:07;;;;;;;1.75;1.08;;;23.00;93.50;;;;;;5056571;23;20249;-72
2022/06/28 09:50:36;;;;;;;0.93;0.90;;;23.10;95.00;;;;;;5018044;28;20235;-72
2022/06/28 09:53:03;;;;;;;2.25;1.10;;;23.30;93.30;;;;;;5017978;28;20181;-72
2022/06/28 09:55:31;;;;;;;1.00;0.80;;;23.30;92.60;;;;;;5018145;28;20182;-72
2022/06/28 09:57:58;;;;;;;1.02;0.90;;;23.40;93.10;;;;;;5017797;28;20193;-72
2022/06/28 10:00:25;;;;;;;1.30;0.98;;;23.40;90.60;;;;;;5017894;28;20231;-72
2022/06/28 10:02:54;;;;;;;1.30;1.20;;;23.30;89.80;;;;;;5017968;28;20232;-72
2022/06/28 10:05:20;;;;;;;1.40;1.00;;;23.40;90.10;;;;;;5017789;28;20209;-72
2022/06/28 10:07:46;;;;;;;1.17;1.00;;;23.50;92.10;;;;;;5034284;28;20165;-72
2022/06/28 10:10:12;;;;;;;1.30;0.82;;;23.60;89.10;;;;;;5034286;28;20170;-72
2022/06/28 10:15:32;;;;;;;2.15;1.00;;;24.10;91.30;;;;;;5041349;28;20200;-72
2022/06/28 10:18:08;;;;;;;2.03;1.20;;;24.40;90.20;;;;;;5022526;28;20197;-72
2022/06/28 10:20:36;;;;;;;2.42;1.15;;;24.40;82.90;;;;;;5038971;28;20165;-72
2022/06/28 10:23:25;;;;;;;2.08;1.00;;;24.20;82.60;;;;;;5021655;28;20173;-72
2022/06/28 10:26:20;;;;;;;1.00;0.90;;;24.50;84.90;;;;;;5038362;28;20197;-72
2022/06/28 10:29:01;;;;;;;2.58;1.15;;;24.70;77.50;;;;;;5005128;28;20206;-72
2022/06/28 10:31:29;;;;;;;1.20;1.05;;;24.70;71.40;;;;;;5021384;28;20188;-73
2022/06/28 10:33:56;;;;;;;1.05;0.88;;;24.80;79.70;;;;;;5037822;28;20678;-72
2022/06/28 10:36:24;;;;;;;1.85;0.88;;;24.90;79.40;;;;;;5021649;28;20182;-72
2022/06/28 10:39:08;;;;;;;0.85;0.80;;;24.70;76.70;;;;;;5021680;28;20559;-72
2022/06/28 10:41:45;;;;;;;1.02;0.85;;;24.30;68.40;;;;;;5055714;28;20166;-73
2022/06/28 10:44:12;;;;;;;1.48;0.95;;;24.20;65.70;;;;;;5021186;28;20200;-72
2022/06/28 10:46:39;;;;;;;1.30;0.90;;;24.50;67.20;;;;;;5037975;28;20184;-72
2022/06/28 10:49:14;;;;;;;0.93;0.82;;;24.70;68.60;;;;;;5037637;28;20296;-72
2022/06/28 10:52:14;;;;;;;0.82;0.77;;;25.10;69.90;;;;;;5021155;28;20173;-72
2022/06/28 10:54:51;;;;;;;1.58;0.95;;;25.20;65.80;;;;;;5037584;28;20587;-72
2022/06/28 10:57:24;;;;;;;1.45;1.00;;;25.40;62.30;;;;;;5022186;28;20264;-72
2022/06/28 10:59:54;;;;;;;1.95;1.00;;;25.90;63.40;;;;;;5037419;28;20743;-73
2022/06/28 11:02:20;;;;;;;1.00;0.90;;;26.00;60.40;;;;;;5018672;28;20232;-72
2022/06/28 11:05:02;;;;;;;0.80;0.80;;;26.10;62.90;;;;;;5037921;28;20276;-72
2022/06/28 11:07:30;;;;;;;1.13;0.80;;;26.20;63.60;;;;;;5038087;28;20154;-72
2022/06/28 11:10:04;;;;;;;1.42;1.08;;;26.40;60.50;;;;;;5021206;28;20204;-72
2022/06/28 11:12:37;;;;;;;1.58;1.02;;;26.50;61.20;;;;;;5037436;28;20172;-72
2022/06/28 11:15:12;;;;;;;2.08;1.00;;;26.70;59.10;;;;;;5037962;28;20701;-72
2022/06/28 11:17:40;;;;;;;0.70;0.70;;;26.80;57.80;;;;;;5021124;28;20193;-72
2022/06/28 11:20:14;;;;;;;1.38;1.00;;;26.70;57.90;;;;;;5021508;28;20178;-72
2022/06/28 11:22:48;;;;;;;1.08;0.80;;;26.90;56.70;;;;;;5037548;28;20623;-73
2022/06/28 11:25:25;;;;;;;2.42;1.00;;;26.90;54.10;;;;;;5021119;28;20225;-72
2022/06/28 11:27:57;;;;;;;1.58;1.02;;;27.10;52.80;;;;;;5037600;28;20200;-72
2022/06/28 11:30:27;;;;;;;1.25;0.90;;;27.00;54.50;;;;;;5021265;28;20607;-72
2022/06/28 11:32:55;;;;;;;1.73;1.00;;;27.00;54.00;;;;;;5021429;28;20245;-72
2022/06/28 11:35:27;;;;;;;1.33;0.98;;;27.10;52.40;;;;;;5021353;28;20186;-72
2022/06/28 11:37:55;;;;;;;0.88;0.88;;;27.30;51.70;;;;;;5037497;28;20186;-73
2022/06/28 11:40:26;;;;;;;1.67;0.98;;;27.50;52.40;;;;;;5020956;28;20177;-72
2022/06/28 11:43:12;;;;;;;1.20;0.90;;;27.70;51.30;;;;;;5037308;28;20200;-72
2022/06/28 11:45:43;;;;;;;1.63;0.90;;;27.80;49.20;;;;;;5054999;28;20651;-72
2022/06/28 11:48:14;;;;;;;2.13;0.82;;;27.70;47.90;;;;;;5020610;28;20213;-72
2022/06/28 11:50:42;;;;;;;1.30;0.80;;;27.60;49.00;;;;;;5020826;28;20603;-72
2022/06/28 11:53:08;;;;;;;0.90;0.80;;;27.80;48.70;;;;;;5020645;28;20272;-72
2022/06/28 11:55:45;;;;;;;1.95;0.90;;;27.70;47.30;;;;;;5020642;28;20188;-72
2022/06/28 11:58:10;;;;;;;0.85;0.85;;;27.60;47.20;;;;;;5020722;28;20189;-72
2022/06/28 12:00:36;;;;;;;2.47;0.90;;;27.00;47.60;;;;;;5037177;28;20256;-72
2022/06/28 12:03:04;;;;;;;1.10;0.90;;;27.10;48.80;;;;;;5020193;28;20272;-72
2022/06/28 12:05:35;;;;;;;1.23;0.90;;;27.20;48.50;;;;;;5037095;28;20218;-72
2022/06/28 12:08:02;;;;;;;1.23;0.90;;;27.60;48.40;;;;;;5020637;28;20334;-72
2022/06/28 12:10:31;;;;;;;0.80;0.80;;;27.50;47.90;;;;;;5036629;28;20239;-72
2022/06/28 12:13:11;;;;;;;0.88;0.88;;;27.90;50.60;;;;;;5054090;28;20244;-72
2022/06/28 12:15:37;;;;;;;1.20;1.00;;;28.00;46.60;;;;;;5036634;28;20162;-72
2022/06/28 12:18:05;;;;;;;1.17;0.75;;;28.10;45.80;;;;;;5019785;28;20201;-72
2022/06/28 12:20:32;;;;;;;2.55;1.10;;;28.10;48.20;;;;;;5020156;28;20189;-72
2022/06/28 12:23:05;;;;;;;1.23;1.00;;;28.40;48.10;;;;;;5020154;28;20174;-72
2022/06/28 12:25:32;;;;;;;1.10;0.85;;;28.20;44.10;;;;;;5020240;28;20204;-72
2022/06/28 12:27:58;;;;;;;0.98;0.90;;;28.30;49.50;;;;;;5020041;28;20198;-72
2022/06/28 12:30:24;;;;;;;1.58;0.90;;;28.60;47.70;;;;;;5019727;28;20572;-72
2022/06/28 12:32:52;;;;;;;1.08;0.85;;;28.70;47.30;;;;;;5019932;28;20201;-73
2022/06/28 12:35:19;;;;;;;1.10;1.00;;;29.10;47.20;;;;;;5036052;28;20608;-72
2022/06/28 12:37:45;;;;;;;1.05;1.00;;;29.20;46.10;;;;;;5053483;28;20197;-72
2022/06/28 12:40:12;;;;;;;1.20;1.00;;;29.00;47.90;;;;;;5036542;28;20509;-73
2022/06/28 12:42:38;;;;;;;0.73;0.73;;;29.20;47.10;;;;;;5019575;28;20182;-73
2022/06/28 12:45:04;;;;;;;0.90;0.90;;;29.40;47.10;;;;;;5036154;28;20219;-73
2022/06/28 12:47:35;;;;;;;1.00;0.90;;;29.20;41.70;;;;;;5053699;28;20196;-72
2022/06/28 12:50:04;;;;;;;1.25;0.93;;;28.80;42.50;;;;;;5053611;28;20702;-72
2022/06/28 12:52:32;;;;;;;0.80;0.80;;;29.00;44.30;;;;;;5019446;28;20614;-72
2022/06/28 12:54:58;;;;;;;1.02;0.90;;;29.00;46.10;;;;;;5019236;28;20702;-72
2022/06/28 12:57:25;;;;;;;1.58;1.05;;;29.00;46.80;;;;;;5019186;28;20189;-73
2022/06/28 12:59:51;;;;;;;1.95;1.00;;;29.10;43.40;;;;;;5036160;28;20213;-72
2022/06/28 13:02:16;;;;;;;1.80;1.10;;;29.30;44.60;;;;;;5018945;28;20216;-72
2022/06/28 13:04:42;;;;;;;1.00;0.85;;;29.10;45.50;;;;;;5015114;28;20301;-72
2022/06/28 13:07:08;;;;;;;1.90;1.10;;;29.00;45.30;;;;;;4999737;28;20204;-73